sensor_id;sensor_type;location;lat;lon;timestamp;P1;durP1;ratioP1;P2;durP2;ratioP2
47167;SDS011;32931;47.778;17.806;2022-09-30T00:01:49;17.48;;;13.48;;
47167;SDS011;32931;47.778;17.806;2022-09-30T00:04:16;17.95;;;12.98;;
47167;SDS011;32931;47.778;17.806;2022-09-30T00:06:45;19.00;;;12.45;;
47167;SDS011;32931;47.778;17.806;2022-09-30T00:09:12;19.17;;;12.20;;
47167;SDS011;32931;47.778;17.806;2022-09-30T00:11:39;19.67;;;11.70;;
47167;SDS011;32931;47.778;17.806;2022-09-30T00:14:07;20.83;;;12.70;;
47167;SDS011;32931;47.778;17.806;2022-09-30T00:16:42;14.88;;;12.23;;
47167;SDS011;32931;47.778;17.806;2022-09-30T00:19:09;16.98;;;12.23;;
47167;SDS011;32931;47.778;17.806;2022-09-30T00:21:35;18.08;;;11.93;;
47167;SDS011;32931;47.778;17.806;2022-09-30T00:24:02;17.02;;;11.23;;
47167;SDS011;32931;47.778;17.806;2022-09-30T00:26:30;17.40;;;12.23;;
47167;SDS011;32931;47.778;17.806;2022-09-30T00:28:57;17.38;;;10.80;;
47167;SDS011;32931;47.778;17.806;2022-09-30T00:31:26;15.60;;;11.23;;
47167;SDS011;32931;47.778;17.806;2022-09-30T00:33:55;16.60;;;11.90;;
47167;SDS011;32931;47.778;17.806;2022-09-30T00:36:34;14.77;;;10.95;;
47167;SDS011;32931;47.778;17.806;2022-09-30T00:39:13;18.35;;;11.02;;
47167;SDS011;32931;47.778;17.806;2022-09-30T00:41:45;15.98;;;10.88;;
47167;SDS011;32931;47.778;17.806;2022-09-30T00:49:53;17.67;;;10.10;;
47167;SDS011;32931;47.778;17.806;2022-09-30T00:52:21;16.33;;;10.35;;
47167;SDS011;32931;47.778;17.806;2022-09-30T00:54:48;19.23;;;10.02;;
47167;SDS011;32931;47.778;17.806;2022-09-30T00:57:15;17.48;;;9.20;;
47167;SDS011;32931;47.778;17.806;2022-09-30T00:59:43;23.70;;;10.00;;
47167;SDS011;32931;47.778;17.806;2022-09-30T01:02:12;22.30;;;10.75;;
47167;SDS011;32931;47.778;17.806;2022-09-30T01:04:39;24.58;;;10.85;;
47167;SDS011;32931;47.778;17.806;2022-09-30T01:07:08;24.00;;;10.70;;
47167;SDS011;32931;47.778;17.806;2022-09-30T01:09:37;18.45;;;10.73;;
47167;SDS011;32931;47.778;17.806;2022-09-30T01:12:06;19.88;;;11.25;;
47167;SDS011;32931;47.778;17.806;2022-09-30T01:14:40;20.30;;;10.98;;
47167;SDS011;32931;47.778;17.806;2022-09-30T01:17:19;19.25;;;10.38;;
47167;SDS011;32931;47.778;17.806;2022-09-30T01:22:33;25.92;;;11.73;;
47167;SDS011;32931;47.778;17.806;2022-09-30T01:33:19;20.77;;;9.68;;
47167;SDS011;32931;47.778;17.806;2022-09-30T01:47:24;25.50;;;9.75;;
47167;SDS011;32931;47.778;17.806;2022-09-30T01:52:41;33.30;;;9.85;;
47167;SDS011;32931;47.778;17.806;2022-09-30T01:55:12;23.73;;;9.30;;
47167;SDS011;32931;47.778;17.806;2022-09-30T02:00:38;31.08;;;8.90;;
47167;SDS011;32931;47.778;17.806;2022-09-30T02:03:08;29.90;;;8.90;;
47167;SDS011;32931;47.778;17.806;2022-09-30T02:05:36;31.83;;;9.23;;
47167;SDS011;32931;47.778;17.806;2022-09-30T02:08:15;29.27;;;9.13;;
47167;SDS011;32931;47.778;17.806;2022-09-30T02:11:08;23.23;;;8.02;;
47167;SDS011;32931;47.778;17.806;2022-09-30T02:13:44;29.13;;;9.68;;
47167;SDS011;32931;47.778;17.806;2022-09-30T02:16:15;30.97;;;8.97;;
47167;SDS011;32931;47.778;17.806;2022-09-30T02:18:57;28.58;;;8.43;;
47167;SDS011;32931;47.778;17.806;2022-09-30T02:21:32;27.88;;;8.52;;
47167;SDS011;32931;47.778;17.806;2022-09-30T02:24:04;22.30;;;8.13;;
47167;SDS011;32931;47.778;17.806;2022-09-30T02:26:35;25.20;;;8.23;;
47167;SDS011;32931;47.778;17.806;2022-09-30T02:29:09;22.50;;;7.47;;
47167;SDS011;32931;47.778;17.806;2022-09-30T02:31:40;23.77;;;7.57;;
47167;SDS011;32931;47.778;17.806;2022-09-30T02:37:58;27.13;;;7.70;;
47167;SDS011;32931;47.778;17.806;2022-09-30T02:43:15;20.83;;;6.90;;
47167;SDS011;32931;47.778;17.806;2022-09-30T02:51:23;17.30;;;6.60;;
47167;SDS011;32931;47.778;17.806;2022-09-30T02:54:15;16.17;;;7.20;;
47167;SDS011;32931;47.778;17.806;2022-09-30T02:56:58;18.97;;;7.20;;
47167;SDS011;32931;47.778;17.806;2022-09-30T02:59:48;17.40;;;7.35;;
47167;SDS011;32931;47.778;17.806;2022-09-30T03:02:17;16.75;;;7.55;;
47167;SDS011;32931;47.778;17.806;2022-09-30T03:04:45;17.92;;;6.72;;
47167;SDS011;32931;47.778;17.806;2022-09-30T03:07:14;16.70;;;6.85;;
47167;SDS011;32931;47.778;17.806;2022-09-30T03:09:40;19.60;;;7.05;;
47167;SDS011;32931;47.778;17.806;2022-09-30T03:12:11;23.58;;;8.23;;
47167;SDS011;32931;47.778;17.806;2022-09-30T03:20:30;19.58;;;7.25;;
47167;SDS011;32931;47.778;17.806;2022-09-30T03:23:12;16.13;;;7.90;;
47167;SDS011;32931;47.778;17.806;2022-09-30T03:28:39;19.00;;;8.82;;
47167;SDS011;32931;47.778;17.806;2022-09-30T03:31:22;15.50;;;9.00;;
47167;SDS011;32931;47.778;17.806;2022-09-30T03:34:09;17.27;;;9.20;;
47167;SDS011;32931;47.778;17.806;2022-09-30T03:39:23;18.48;;;9.15;;
47167;SDS011;32931;47.778;17.806;2022-09-30T03:45:36;14.98;;;8.38;;
47167;SDS011;32931;47.778;17.806;2022-09-30T03:47:57;11.50;;;7.82;;
47167;SDS011;32931;47.778;17.806;2022-09-30T03:50:28;13.07;;;6.95;;
47167;SDS011;32931;47.778;17.806;2022-09-30T03:52:56;15.00;;;8.07;;
47167;SDS011;32931;47.778;17.806;2022-09-30T03:55:23;17.27;;;8.98;;
47167;SDS011;32931;47.778;17.806;2022-09-30T03:57:50;15.07;;;9.02;;
47167;SDS011;32931;47.778;17.806;2022-09-30T04:00:16;18.35;;;9.07;;
47167;SDS011;32931;47.778;17.806;2022-09-30T04:02:43;19.20;;;8.93;;
47167;SDS011;32931;47.778;17.806;2022-09-30T04:05:10;14.98;;;9.50;;
47167;SDS011;32931;47.778;17.806;2022-09-30T04:07:37;13.98;;;8.48;;
47167;SDS011;32931;47.778;17.806;2022-09-30T04:10:03;13.82;;;8.57;;
47167;SDS011;32931;47.778;17.806;2022-09-30T04:12:30;12.93;;;7.95;;
47167;SDS011;32931;47.778;17.806;2022-09-30T04:14:56;14.27;;;8.82;;
47167;SDS011;32931;47.778;17.806;2022-09-30T04:17:22;12.07;;;8.52;;
47167;SDS011;32931;47.778;17.806;2022-09-30T04:19:48;12.73;;;8.80;;
47167;SDS011;32931;47.778;17.806;2022-09-30T04:22:15;12.50;;;8.27;;
47167;SDS011;32931;47.778;17.806;2022-09-30T04:24:41;16.73;;;9.23;;
47167;SDS011;32931;47.778;17.806;2022-09-30T04:27:08;16.50;;;8.73;;
47167;SDS011;32931;47.778;17.806;2022-09-30T04:29:34;14.30;;;9.15;;
47167;SDS011;32931;47.778;17.806;2022-09-30T04:32:00;10.43;;;8.63;;
47167;SDS011;32931;47.778;17.806;2022-09-30T04:34:27;10.88;;;8.30;;
47167;SDS011;32931;47.778;17.806;2022-09-30T04:36:53;12.18;;;8.32;;
47167;SDS011;32931;47.778;17.806;2022-09-30T04:39:19;11.30;;;8.65;;
47167;SDS011;32931;47.778;17.806;2022-09-30T04:41:45;12.85;;;8.40;;
47167;SDS011;32931;47.778;17.806;2022-09-30T04:44:11;12.32;;;8.15;;
47167;SDS011;32931;47.778;17.806;2022-09-30T04:46:38;15.63;;;9.10;;
47167;SDS011;32931;47.778;17.806;2022-09-30T04:49:04;11.35;;;9.15;;
47167;SDS011;32931;47.778;17.806;2022-09-30T04:51:32;14.43;;;9.27;;
47167;SDS011;32931;47.778;17.806;2022-09-30T04:53:58;11.60;;;8.98;;
47167;SDS011;32931;47.778;17.806;2022-09-30T04:56:25;13.70;;;9.00;;
47167;SDS011;32931;47.778;17.806;2022-09-30T04:58:51;13.68;;;9.55;;
47167;SDS011;32931;47.778;17.806;2022-09-30T05:01:19;13.15;;;8.75;;
47167;SDS011;32931;47.778;17.806;2022-09-30T05:03:45;12.88;;;9.80;;
47167;SDS011;32931;47.778;17.806;2022-09-30T05:06:12;16.92;;;10.10;;
47167;SDS011;32931;47.778;17.806;2022-09-30T05:08:39;18.55;;;14.70;;
47167;SDS011;32931;47.778;17.806;2022-09-30T05:11:09;19.40;;;14.85;;
47167;SDS011;32931;47.778;17.806;2022-09-30T05:13:38;13.43;;;10.80;;
47167;SDS011;32931;47.778;17.806;2022-09-30T05:16:06;13.25;;;9.38;;
47167;SDS011;32931;47.778;17.806;2022-09-30T05:18:33;10.52;;;8.75;;
47167;SDS011;32931;47.778;17.806;2022-09-30T05:21:00;9.88;;;7.93;;
47167;SDS011;32931;47.778;17.806;2022-09-30T05:23:27;13.95;;;7.60;;
47167;SDS011;32931;47.778;17.806;2022-09-30T05:25:55;12.40;;;8.60;;
47167;SDS011;32931;47.778;17.806;2022-09-30T05:28:22;9.68;;;7.85;;
47167;SDS011;32931;47.778;17.806;2022-09-30T05:30:55;11.75;;;8.30;;
47167;SDS011;32931;47.778;17.806;2022-09-30T05:33:24;9.55;;;7.93;;
47167;SDS011;32931;47.778;17.806;2022-09-30T05:35:51;10.07;;;7.68;;
47167;SDS011;32931;47.778;17.806;2022-09-30T05:38:17;11.93;;;8.25;;
47167;SDS011;32931;47.778;17.806;2022-09-30T05:40:43;10.30;;;8.82;;
47167;SDS011;32931;47.778;17.806;2022-09-30T05:43:09;10.07;;;8.15;;
47167;SDS011;32931;47.778;17.806;2022-09-30T05:45:36;12.98;;;8.27;;
47167;SDS011;32931;47.778;17.806;2022-09-30T05:48:03;10.55;;;7.82;;
47167;SDS011;32931;47.778;17.806;2022-09-30T05:50:29;8.18;;;7.18;;
47167;SDS011;32931;47.778;17.806;2022-09-30T05:52:55;9.20;;;8.10;;
47167;SDS011;32931;47.778;17.806;2022-09-30T05:55:22;10.80;;;8.45;;
47167;SDS011;32931;47.778;17.806;2022-09-30T05:57:49;11.57;;;8.63;;
47167;SDS011;32931;47.778;17.806;2022-09-30T06:00:17;8.98;;;7.55;;
47167;SDS011;32931;47.778;17.806;2022-09-30T06:02:43;9.50;;;7.95;;
47167;SDS011;32931;47.778;17.806;2022-09-30T06:05:10;8.18;;;7.30;;
47167;SDS011;32931;47.778;17.806;2022-09-30T06:07:37;9.98;;;8.18;;
47167;SDS011;32931;47.778;17.806;2022-09-30T06:10:04;10.70;;;8.98;;
47167;SDS011;32931;47.778;17.806;2022-09-30T06:12:34;12.50;;;8.65;;
47167;SDS011;32931;47.778;17.806;2022-09-30T06:15:03;9.63;;;7.22;;
47167;SDS011;32931;47.778;17.806;2022-09-30T06:17:30;8.82;;;7.40;;
47167;SDS011;32931;47.778;17.806;2022-09-30T06:19:56;9.40;;;7.95;;
47167;SDS011;32931;47.778;17.806;2022-09-30T06:22:22;13.38;;;8.27;;
47167;SDS011;32931;47.778;17.806;2022-09-30T06:24:48;11.93;;;7.80;;
47167;SDS011;32931;47.778;17.806;2022-09-30T06:27:14;8.60;;;7.25;;
47167;SDS011;32931;47.778;17.806;2022-09-30T06:29:41;8.32;;;7.43;;
47167;SDS011;32931;47.778;17.806;2022-09-30T06:32:07;9.77;;;7.78;;
47167;SDS011;32931;47.778;17.806;2022-09-30T06:34:33;8.88;;;7.22;;
47167;SDS011;32931;47.778;17.806;2022-09-30T06:36:59;8.95;;;7.75;;
47167;SDS011;32931;47.778;17.806;2022-09-30T06:39:25;10.60;;;7.57;;
47167;SDS011;32931;47.778;17.806;2022-09-30T06:41:53;8.57;;;7.70;;
47167;SDS011;32931;47.778;17.806;2022-09-30T06:44:20;12.07;;;8.57;;
47167;SDS011;32931;47.778;17.806;2022-09-30T06:46:47;12.75;;;7.75;;
47167;SDS011;32931;47.778;17.806;2022-09-30T06:49:13;9.32;;;8.25;;
47167;SDS011;32931;47.778;17.806;2022-09-30T06:51:39;9.10;;;7.22;;
47167;SDS011;32931;47.778;17.806;2022-09-30T06:54:05;12.15;;;8.10;;
47167;SDS011;32931;47.778;17.806;2022-09-30T06:56:33;8.43;;;7.40;;
47167;SDS011;32931;47.778;17.806;2022-09-30T06:59:00;9.30;;;7.20;;
47167;SDS011;32931;47.778;17.806;2022-09-30T07:01:26;10.45;;;7.78;;
47167;SDS011;32931;47.778;17.806;2022-09-30T07:03:54;8.55;;;7.30;;
47167;SDS011;32931;47.778;17.806;2022-09-30T07:06:22;9.98;;;7.93;;
47167;SDS011;32931;47.778;17.806;2022-09-30T07:08:53;9.20;;;7.82;;
47167;SDS011;32931;47.778;17.806;2022-09-30T07:11:21;10.68;;;7.28;;
47167;SDS011;32931;47.778;17.806;2022-09-30T07:13:48;9.60;;;7.68;;
47167;SDS011;32931;47.778;17.806;2022-09-30T07:16:15;9.85;;;7.93;;
47167;SDS011;32931;47.778;17.806;2022-09-30T07:18:43;10.88;;;7.50;;
47167;SDS011;32931;47.778;17.806;2022-09-30T07:21:13;10.52;;;7.15;;
47167;SDS011;32931;47.778;17.806;2022-09-30T07:23:41;10.07;;;7.25;;
47167;SDS011;32931;47.778;17.806;2022-09-30T07:26:12;9.80;;;7.13;;
47167;SDS011;32931;47.778;17.806;2022-09-30T07:28:40;8.55;;;7.07;;
47167;SDS011;32931;47.778;17.806;2022-09-30T07:31:12;7.75;;;6.80;;
47167;SDS011;32931;47.778;17.806;2022-09-30T07:33:41;7.90;;;7.10;;
47167;SDS011;32931;47.778;17.806;2022-09-30T07:36:08;8.75;;;7.00;;
47167;SDS011;32931;47.778;17.806;2022-09-30T07:38:36;7.57;;;6.47;;
47167;SDS011;32931;47.778;17.806;2022-09-30T07:43:33;9.20;;;7.00;;
47167;SDS011;32931;47.778;17.806;2022-09-30T07:46:05;7.68;;;6.97;;
47167;SDS011;32931;47.778;17.806;2022-09-30T07:48:34;7.53;;;6.40;;
47167;SDS011;32931;47.778;17.806;2022-09-30T07:51:24;8.40;;;6.60;;
47167;SDS011;32931;47.778;17.806;2022-09-30T07:53:56;7.38;;;6.60;;
47167;SDS011;32931;47.778;17.806;2022-09-30T07:56:24;7.70;;;6.47;;
47167;SDS011;32931;47.778;17.806;2022-09-30T07:58:53;7.80;;;6.97;;
47167;SDS011;32931;47.778;17.806;2022-09-30T08:01:21;6.95;;;6.25;;
47167;SDS011;32931;47.778;17.806;2022-09-30T08:03:51;7.47;;;6.05;;
47167;SDS011;32931;47.778;17.806;2022-09-30T08:06:21;8.07;;;6.38;;
47167;SDS011;32931;47.778;17.806;2022-09-30T08:08:49;8.45;;;7.22;;
47167;SDS011;32931;47.778;17.806;2022-09-30T08:11:17;8.05;;;6.95;;
47167;SDS011;32931;47.778;17.806;2022-09-30T08:13:43;7.65;;;6.85;;
47167;SDS011;32931;47.778;17.806;2022-09-30T08:16:14;9.73;;;7.38;;
47167;SDS011;32931;47.778;17.806;2022-09-30T08:18:40;8.43;;;7.53;;
47167;SDS011;32931;47.778;17.806;2022-09-30T08:21:06;9.02;;;7.60;;
47167;SDS011;32931;47.778;17.806;2022-09-30T08:23:33;7.70;;;6.90;;
47167;SDS011;32931;47.778;17.806;2022-09-30T08:26:00;8.25;;;7.13;;
47167;SDS011;32931;47.778;17.806;2022-09-30T08:28:31;7.22;;;6.20;;
47167;SDS011;32931;47.778;17.806;2022-09-30T08:31:07;7.82;;;6.70;;
47167;SDS011;32931;47.778;17.806;2022-09-30T08:33:38;7.85;;;6.90;;
47167;SDS011;32931;47.778;17.806;2022-09-30T08:36:06;10.98;;;8.63;;
47167;SDS011;32931;47.778;17.806;2022-09-30T08:38:37;8.83;;;7.70;;
47167;SDS011;32931;47.778;17.806;2022-09-30T08:41:29;8.25;;;7.13;;
47167;SDS011;32931;47.778;17.806;2022-09-30T08:52:16;6.65;;;5.93;;
47167;SDS011;32931;47.778;17.806;2022-09-30T08:54:49;6.45;;;5.63;;
47167;SDS011;32931;47.778;17.806;2022-09-30T08:57:18;8.25;;;5.50;;
47167;SDS011;32931;47.778;17.806;2022-09-30T08:59:47;6.00;;;5.40;;
47167;SDS011;32931;47.778;17.806;2022-09-30T09:02:21;5.90;;;5.28;;
47167;SDS011;32931;47.778;17.806;2022-09-30T09:05:01;5.63;;;5.13;;
47167;SDS011;32931;47.778;17.806;2022-09-30T09:10:26;6.05;;;4.97;;
47167;SDS011;32931;47.778;17.806;2022-09-30T09:13:19;6.60;;;5.25;;
47167;SDS011;32931;47.778;17.806;2022-09-30T09:19:04;6.88;;;5.50;;
47167;SDS011;32931;47.778;17.806;2022-09-30T09:21:50;6.75;;;6.05;;
47167;SDS011;32931;47.778;17.806;2022-09-30T09:24:25;8.75;;;6.50;;
47167;SDS011;32931;47.778;17.806;2022-09-30T09:26:53;8.48;;;6.47;;
47167;SDS011;32931;47.778;17.806;2022-09-30T09:32:27;7.32;;;6.20;;
47167;SDS011;32931;47.778;17.806;2022-09-30T09:34:56;8.20;;;6.75;;
47167;SDS011;32931;47.778;17.806;2022-09-30T09:37:45;7.25;;;6.43;;
47167;SDS011;32931;47.778;17.806;2022-09-30T09:43:26;10.02;;;6.43;;
47167;SDS011;32931;47.778;17.806;2022-09-30T09:54:41;6.07;;;5.15;;
47167;SDS011;32931;47.778;17.806;2022-09-30T09:57:11;8.68;;;4.32;;
47167;SDS011;32931;47.778;17.806;2022-09-30T10:03:05;4.97;;;4.45;;
47167;SDS011;32931;47.778;17.806;2022-09-30T10:05:35;6.88;;;4.80;;
47167;SDS011;32931;47.778;17.806;2022-09-30T10:08:11;5.93;;;3.97;;
47167;SDS011;32931;47.778;17.806;2022-09-30T10:10:45;6.25;;;3.65;;
47167;SDS011;32931;47.778;17.806;2022-09-30T10:15:44;4.63;;;3.60;;
47167;SDS011;32931;47.778;17.806;2022-09-30T10:18:45;4.00;;;3.60;;
47167;SDS011;32931;47.778;17.806;2022-09-30T10:21:23;4.47;;;3.78;;
47167;SDS011;32931;47.778;17.806;2022-09-30T10:23:51;4.40;;;3.80;;
47167;SDS011;32931;47.778;17.806;2022-09-30T10:26:18;3.60;;;3.20;;
47167;SDS011;32931;47.778;17.806;2022-09-30T10:28:51;5.03;;;3.97;;
47167;SDS011;32931;47.778;17.806;2022-09-30T10:34:01;3.72;;;3.30;;
47167;SDS011;32931;47.778;17.806;2022-09-30T10:36:46;4.57;;;3.35;;
47167;SDS011;32931;47.778;17.806;2022-09-30T10:39:26;3.50;;;3.20;;
47167;SDS011;32931;47.778;17.806;2022-09-30T10:42:03;3.38;;;3.08;;
47167;SDS011;32931;47.778;17.806;2022-09-30T10:44:36;7.00;;;3.65;;
47167;SDS011;32931;47.778;17.806;2022-09-30T10:47:17;4.55;;;4.15;;
47167;SDS011;32931;47.778;17.806;2022-09-30T10:54:59;4.88;;;2.90;;
47167;SDS011;32931;47.778;17.806;2022-09-30T10:57:34;3.38;;;2.90;;
47167;SDS011;32931;47.778;17.806;2022-09-30T11:05:16;3.63;;;2.10;;
47167;SDS011;32931;47.778;17.806;2022-09-30T11:12:51;4.05;;;2.00;;
47167;SDS011;32931;47.778;17.806;2022-09-30T11:15:29;2.53;;;2.22;;
47167;SDS011;32931;47.778;17.806;2022-09-30T11:21:20;2.10;;;1.90;;
47167;SDS011;32931;47.778;17.806;2022-09-30T11:23:53;1.50;;;1.35;;
47167;SDS011;32931;47.778;17.806;2022-09-30T11:40:10;1.73;;;1.60;;
47167;SDS011;32931;47.778;17.806;2022-09-30T11:42:59;1.75;;;1.42;;
47167;SDS011;32931;47.778;17.806;2022-09-30T11:49:19;3.67;;;2.10;;
47167;SDS011;32931;47.778;17.806;2022-09-30T11:56:35;3.15;;;2.30;;
47167;SDS011;32931;47.778;17.806;2022-09-30T11:59:22;2.45;;;2.25;;
47167;SDS011;32931;47.778;17.806;2022-09-30T12:01:53;6.55;;;2.58;;
47167;SDS011;32931;47.778;17.806;2022-09-30T12:04:35;4.50;;;2.77;;
47167;SDS011;32931;47.778;17.806;2022-09-30T12:07:16;3.35;;;2.53;;
47167;SDS011;32931;47.778;17.806;2022-09-30T12:09:52;3.35;;;2.95;;
47167;SDS011;32931;47.778;17.806;2022-09-30T12:12:25;4.32;;;2.97;;
47167;SDS011;32931;47.778;17.806;2022-09-30T12:20:09;3.83;;;2.70;;
47167;SDS011;32931;47.778;17.806;2022-09-30T12:25:56;6.80;;;3.22;;
47167;SDS011;32931;47.778;17.806;2022-09-30T12:28:32;4.05;;;3.20;;
47167;SDS011;32931;47.778;17.806;2022-09-30T12:42:32;3.95;;;3.53;;
47167;SDS011;32931;47.778;17.806;2022-09-30T12:50:26;5.28;;;3.85;;
47167;SDS011;32931;47.778;17.806;2022-09-30T12:52:55;5.30;;;3.95;;
47167;SDS011;32931;47.778;17.806;2022-09-30T12:57:52;7.15;;;4.07;;
47167;SDS011;32931;47.778;17.806;2022-09-30T13:00:21;6.35;;;3.65;;
47167;SDS011;32931;47.778;17.806;2022-09-30T13:02:56;7.70;;;3.47;;
47167;SDS011;32931;47.778;17.806;2022-09-30T13:08:43;7.22;;;3.70;;
47167;SDS011;32931;47.778;17.806;2022-09-30T13:10:43;4.00;;;3.60;;
47167;SDS011;32931;47.778;17.806;2022-09-30T13:15:53;4.65;;;4.10;;
47167;SDS011;32931;47.778;17.806;2022-09-30T13:21:15;5.55;;;4.35;;
47167;SDS011;32931;47.778;17.806;2022-09-30T13:23:46;4.60;;;3.40;;
47167;SDS011;32931;47.778;17.806;2022-09-30T13:28:50;6.38;;;4.22;;
47167;SDS011;32931;47.778;17.806;2022-09-30T13:33:46;4.90;;;4.25;;
47167;SDS011;32931;47.778;17.806;2022-09-30T13:44:58;6.22;;;4.03;;
47167;SDS011;32931;47.778;17.806;2022-09-30T13:47:33;8.32;;;4.80;;
47167;SDS011;32931;47.778;17.806;2022-09-30T13:50:13;8.93;;;4.50;;
47167;SDS011;32931;47.778;17.806;2022-09-30T13:52:48;5.13;;;4.63;;
47167;SDS011;32931;47.778;17.806;2022-09-30T13:55:24;4.65;;;4.25;;
47167;SDS011;32931;47.778;17.806;2022-09-30T14:00:27;4.53;;;3.85;;
47167;SDS011;32931;47.778;17.806;2022-09-30T14:09:25;4.75;;;3.40;;
47167;SDS011;32931;47.778;17.806;2022-09-30T14:17:05;7.90;;;4.00;;
47167;SDS011;32931;47.778;17.806;2022-09-30T14:22:08;7.10;;;3.95;;
47167;SDS011;32931;47.778;17.806;2022-09-30T14:24:38;4.60;;;3.85;;
47167;SDS011;32931;47.778;17.806;2022-09-30T14:32:41;5.22;;;3.67;;
47167;SDS011;32931;47.778;17.806;2022-09-30T14:35:15;6.85;;;4.30;;
47167;SDS011;32931;47.778;17.806;2022-09-30T14:37:46;5.18;;;4.00;;
47167;SDS011;32931;47.778;17.806;2022-09-30T14:40:33;6.25;;;4.15;;
47167;SDS011;32931;47.778;17.806;2022-09-30T14:43:11;5.78;;;4.40;;
47167;SDS011;32931;47.778;17.806;2022-09-30T14:45:42;3.97;;;3.50;;
47167;SDS011;32931;47.778;17.806;2022-09-30T14:48:14;7.75;;;4.20;;
47167;SDS011;32931;47.778;17.806;2022-09-30T14:50:45;7.45;;;3.20;;
47167;SDS011;32931;47.778;17.806;2022-09-30T14:53:22;7.20;;;3.38;;
47167;SDS011;32931;47.778;17.806;2022-09-30T14:55:50;11.05;;;4.30;;
47167;SDS011;32931;47.778;17.806;2022-09-30T15:03:28;4.05;;;3.38;;
47167;SDS011;32931;47.778;17.806;2022-09-30T15:05:55;4.18;;;3.10;;
47167;SDS011;32931;47.778;17.806;2022-09-30T15:08:22;3.20;;;2.90;;
47167;SDS011;32931;47.778;17.806;2022-09-30T15:10:50;5.80;;;3.22;;
47167;SDS011;32931;47.778;17.806;2022-09-30T15:13:20;6.13;;;3.65;;
47167;SDS011;32931;47.778;17.806;2022-09-30T15:15:48;8.23;;;3.42;;
47167;SDS011;32931;47.778;17.806;2022-09-30T15:18:39;5.63;;;3.40;;
47167;SDS011;32931;47.778;17.806;2022-09-30T15:21:13;4.65;;;3.40;;
47167;SDS011;32931;47.778;17.806;2022-09-30T15:23:50;6.00;;;3.28;;
47167;SDS011;32931;47.778;17.806;2022-09-30T15:26:20;6.15;;;3.20;;
47167;SDS011;32931;47.778;17.806;2022-09-30T15:28:48;6.18;;;3.50;;
47167;SDS011;32931;47.778;17.806;2022-09-30T15:34:04;6.45;;;3.45;;
47167;SDS011;32931;47.778;17.806;2022-09-30T15:36:42;3.60;;;2.70;;
47167;SDS011;32931;47.778;17.806;2022-09-30T15:39:16;4.82;;;3.25;;
47167;SDS011;32931;47.778;17.806;2022-09-30T15:41:45;3.45;;;3.15;;
47167;SDS011;32931;47.778;17.806;2022-09-30T15:44:16;5.03;;;3.38;;
47167;SDS011;32931;47.778;17.806;2022-09-30T15:46:59;6.70;;;3.78;;
47167;SDS011;32931;47.778;17.806;2022-09-30T15:49:29;5.90;;;4.75;;
47167;SDS011;32931;47.778;17.806;2022-09-30T15:54:55;5.05;;;4.53;;
47167;SDS011;32931;47.778;17.806;2022-09-30T16:03:18;6.45;;;5.03;;
47167;SDS011;32931;47.778;17.806;2022-09-30T16:05:52;10.55;;;4.00;;
47167;SDS011;32931;47.778;17.806;2022-09-30T16:08:28;4.15;;;3.40;;
47167;SDS011;32931;47.778;17.806;2022-09-30T16:10:56;7.95;;;3.60;;
47167;SDS011;32931;47.778;17.806;2022-09-30T16:13:25;6.47;;;3.20;;
47167;SDS011;32931;47.778;17.806;2022-09-30T16:15:54;4.78;;;3.28;;
47167;SDS011;32931;47.778;17.806;2022-09-30T16:18:23;6.03;;;3.00;;
47167;SDS011;32931;47.778;17.806;2022-09-30T16:20:58;5.85;;;2.97;;
47167;SDS011;32931;47.778;17.806;2022-09-30T16:23:33;5.20;;;3.05;;
47167;SDS011;32931;47.778;17.806;2022-09-30T16:28:58;3.10;;;2.80;;
47167;SDS011;32931;47.778;17.806;2022-09-30T16:31:28;2.90;;;2.58;;
47167;SDS011;32931;47.778;17.806;2022-09-30T16:33:55;5.85;;;3.20;;
47167;SDS011;32931;47.778;17.806;2022-09-30T16:36:21;4.43;;;3.97;;
47167;SDS011;32931;47.778;17.806;2022-09-30T16:38:47;5.85;;;4.00;;
47167;SDS011;32931;47.778;17.806;2022-09-30T16:41:13;10.23;;;5.20;;
47167;SDS011;32931;47.778;17.806;2022-09-30T16:43:39;6.13;;;4.75;;
47167;SDS011;32931;47.778;17.806;2022-09-30T16:46:08;6.63;;;5.25;;
47167;SDS011;32931;47.778;17.806;2022-09-30T16:48:34;8.88;;;5.93;;
47167;SDS011;32931;47.778;17.806;2022-09-30T16:53:31;10.57;;;8.68;;
47167;SDS011;32931;47.778;17.806;2022-09-30T16:55:58;11.35;;;9.25;;
47167;SDS011;32931;47.778;17.806;2022-09-30T16:58:25;11.45;;;6.40;;
47167;SDS011;32931;47.778;17.806;2022-09-30T17:00:51;5.60;;;4.85;;
47167;SDS011;32931;47.778;17.806;2022-09-30T17:03:18;8.93;;;4.35;;
47167;SDS011;32931;47.778;17.806;2022-09-30T17:05:46;5.65;;;4.05;;
47167;SDS011;32931;47.778;17.806;2022-09-30T17:08:17;7.53;;;4.60;;
47167;SDS011;32931;47.778;17.806;2022-09-30T17:10:45;7.10;;;4.10;;
47167;SDS011;32931;47.778;17.806;2022-09-30T17:13:15;4.63;;;3.70;;
47167;SDS011;32931;47.778;17.806;2022-09-30T17:15:46;5.80;;;4.13;;
47167;SDS011;32931;47.778;17.806;2022-09-30T17:18:14;7.82;;;4.10;;
47167;SDS011;32931;47.778;17.806;2022-09-30T17:20:42;5.80;;;4.38;;
47167;SDS011;32931;47.778;17.806;2022-09-30T17:23:11;6.32;;;4.40;;
47167;SDS011;32931;47.778;17.806;2022-09-30T17:25:40;9.10;;;5.38;;
47167;SDS011;32931;47.778;17.806;2022-09-30T17:28:08;7.32;;;5.30;;
47167;SDS011;32931;47.778;17.806;2022-09-30T17:30:35;8.57;;;5.45;;
47167;SDS011;32931;47.778;17.806;2022-09-30T17:33:03;6.43;;;5.30;;
47167;SDS011;32931;47.778;17.806;2022-09-30T17:35:30;14.05;;;5.68;;
47167;SDS011;32931;47.778;17.806;2022-09-30T17:37:58;7.75;;;4.93;;
47167;SDS011;32931;47.778;17.806;2022-09-30T17:40:25;8.00;;;5.07;;
47167;SDS011;32931;47.778;17.806;2022-09-30T17:43:09;8.90;;;5.68;;
47167;SDS011;32931;47.778;17.806;2022-09-30T17:45:39;7.50;;;5.40;;
47167;SDS011;32931;47.778;17.806;2022-09-30T17:48:07;8.27;;;5.20;;
47167;SDS011;32931;47.778;17.806;2022-09-30T17:50:35;8.23;;;5.70;;
47167;SDS011;32931;47.778;17.806;2022-09-30T17:53:03;14.73;;;5.50;;
47167;SDS011;32931;47.778;17.806;2022-09-30T17:55:30;6.85;;;5.35;;
47167;SDS011;32931;47.778;17.806;2022-09-30T17:57:58;11.68;;;6.82;;
47167;SDS011;32931;47.778;17.806;2022-09-30T18:00:27;10.38;;;7.07;;
47167;SDS011;32931;47.778;17.806;2022-09-30T18:02:54;18.02;;;8.20;;
47167;SDS011;32931;47.778;17.806;2022-09-30T18:05:21;11.80;;;8.02;;
47167;SDS011;32931;47.778;17.806;2022-09-30T18:07:50;11.73;;;8.98;;
47167;SDS011;32931;47.778;17.806;2022-09-30T18:10:16;13.15;;;10.15;;
47167;SDS011;32931;47.778;17.806;2022-09-30T18:12:43;14.80;;;11.25;;
47167;SDS011;32931;47.778;17.806;2022-09-30T18:15:17;19.67;;;9.80;;
47167;SDS011;32931;47.778;17.806;2022-09-30T18:17:45;18.67;;;9.88;;
47167;SDS011;32931;47.778;17.806;2022-09-30T18:20:12;12.98;;;9.55;;
47167;SDS011;32931;47.778;17.806;2022-09-30T18:22:39;14.75;;;10.18;;
47167;SDS011;32931;47.778;17.806;2022-09-30T18:25:05;13.30;;;9.18;;
47167;SDS011;32931;47.778;17.806;2022-09-30T18:27:44;12.77;;;8.98;;
47167;SDS011;32931;47.778;17.806;2022-09-30T18:30:12;12.32;;;9.35;;
47167;SDS011;32931;47.778;17.806;2022-09-30T18:32:38;12.30;;;8.85;;
47167;SDS011;32931;47.778;17.806;2022-09-30T18:35:05;13.95;;;8.90;;
47167;SDS011;32931;47.778;17.806;2022-09-30T18:37:37;13.13;;;8.95;;
47167;SDS011;32931;47.778;17.806;2022-09-30T18:40:04;13.48;;;8.55;;
47167;SDS011;32931;47.778;17.806;2022-09-30T18:42:31;11.18;;;8.90;;
47167;SDS011;32931;47.778;17.806;2022-09-30T18:44:57;10.40;;;8.50;;